sensor_id;sensor_type;location;lat;lon;timestamp;P1;durP1;ratioP1;P2;durP2;ratioP2
54823;SDS011;40724;53.196;5.980;2022-09-09T00:00:46;6.63;;;5.05;;
54823;SDS011;40724;53.196;5.980;2022-09-09T00:08:14;8.68;;;5.47;;
54823;SDS011;40724;53.196;5.980;2022-09-09T00:10:41;11.95;;;5.63;;
54823;SDS011;40724;53.196;5.980;2022-09-09T00:13:16;8.02;;;5.68;;
54823;SDS011;40724;53.196;5.980;2022-09-09T00:18:37;7.65;;;6.13;;
54823;SDS011;40724;53.196;5.980;2022-09-09T00:21:05;8.88;;;5.25;;
54823;SDS011;40724;53.196;5.980;2022-09-09T00:23:34;9.43;;;6.05;;
54823;SDS011;40724;53.196;5.980;2022-09-09T00:28:36;11.27;;;7.18;;
54823;SDS011;40724;53.196;5.980;2022-09-09T00:31:14;10.68;;;6.25;;
54823;SDS011;40724;53.196;5.980;2022-09-09T00:33:41;6.80;;;5.15;;
54823;SDS011;40724;53.196;5.980;2022-09-09T00:36:13;8.35;;;5.78;;
54823;SDS011;40724;53.196;5.980;2022-09-09T00:38:42;8.52;;;5.30;;
54823;SDS011;40724;53.196;5.980;2022-09-09T00:41:22;8.68;;;5.32;;
54823;SDS011;40724;53.196;5.980;2022-09-09T00:51:41;11.50;;;5.63;;
54823;SDS011;40724;53.196;5.980;2022-09-09T00:57:10;8.77;;;6.05;;
54823;SDS011;40724;53.196;5.980;2022-09-09T01:02:13;9.43;;;6.45;;
54823;SDS011;40724;53.196;5.980;2022-09-09T01:04:41;7.30;;;5.45;;
54823;SDS011;40724;53.196;5.980;2022-09-09T01:07:16;8.60;;;6.18;;
54823;SDS011;40724;53.196;5.980;2022-09-09T01:09:46;8.82;;;5.05;;
54823;SDS011;40724;53.196;5.980;2022-09-09T01:15:09;9.00;;;6.32;;
54823;SDS011;40724;53.196;5.980;2022-09-09T01:17:40;11.75;;;7.03;;
54823;SDS011;40724;53.196;5.980;2022-09-09T01:27:44;7.00;;;5.85;;
54823;SDS011;40724;53.196;5.980;2022-09-09T01:30:13;8.93;;;5.70;;
54823;SDS011;40724;53.196;5.980;2022-09-09T01:32:44;8.23;;;6.03;;
54823;SDS011;40724;53.196;5.980;2022-09-09T01:37:45;9.98;;;6.43;;
54823;SDS011;40724;53.196;5.980;2022-09-09T01:40:11;8.63;;;6.10;;
54823;SDS011;40724;53.196;5.980;2022-09-09T01:42:37;8.20;;;6.03;;
54823;SDS011;40724;53.196;5.980;2022-09-09T01:45:04;9.43;;;6.05;;
54823;SDS011;40724;53.196;5.980;2022-09-09T01:47:30;7.18;;;5.68;;
54823;SDS011;40724;53.196;5.980;2022-09-09T01:49:56;8.52;;;6.07;;
54823;SDS011;40724;53.196;5.980;2022-09-09T01:52:22;7.22;;;5.85;;
54823;SDS011;40724;53.196;5.980;2022-09-09T01:54:49;11.05;;;6.35;;
54823;SDS011;40724;53.196;5.980;2022-09-09T01:57:17;11.52;;;5.38;;
54823;SDS011;40724;53.196;5.980;2022-09-09T01:59:49;8.93;;;6.22;;
54823;SDS011;40724;53.196;5.980;2022-09-09T02:02:19;7.10;;;5.53;;
54823;SDS011;40724;53.196;5.980;2022-09-09T02:04:47;12.75;;;6.40;;
54823;SDS011;40724;53.196;5.980;2022-09-09T02:09:50;8.43;;;5.80;;
54823;SDS011;40724;53.196;5.980;2022-09-09T02:12:18;15.75;;;5.47;;
54823;SDS011;40724;53.196;5.980;2022-09-09T02:14:50;8.18;;;5.18;;
54823;SDS011;40724;53.196;5.980;2022-09-09T02:17:28;9.80;;;6.38;;
54823;SDS011;40724;53.196;5.980;2022-09-09T02:20:14;8.32;;;5.65;;
54823;SDS011;40724;53.196;5.980;2022-09-09T02:22:41;6.18;;;4.80;;
54823;SDS011;40724;53.196;5.980;2022-09-09T02:25:10;7.18;;;5.20;;
54823;SDS011;40724;53.196;5.980;2022-09-09T02:27:36;5.57;;;4.70;;
54823;SDS011;40724;53.196;5.980;2022-09-09T02:30:03;7.43;;;5.55;;
54823;SDS011;40724;53.196;5.980;2022-09-09T02:32:30;7.03;;;5.15;;
54823;SDS011;40724;53.196;5.980;2022-09-09T02:35:00;6.75;;;5.28;;
54823;SDS011;40724;53.196;5.980;2022-09-09T02:37:30;7.25;;;5.25;;
54823;SDS011;40724;53.196;5.980;2022-09-09T02:39:58;7.40;;;4.97;;
54823;SDS011;40724;53.196;5.980;2022-09-09T02:42:24;8.45;;;6.32;;
54823;SDS011;40724;53.196;5.980;2022-09-09T02:44:50;8.27;;;5.03;;
54823;SDS011;40724;53.196;5.980;2022-09-09T02:49:50;10.52;;;6.20;;
54823;SDS011;40724;53.196;5.980;2022-09-09T02:52:20;6.80;;;5.43;;
54823;SDS011;40724;53.196;5.980;2022-09-09T02:54:48;12.07;;;6.10;;
54823;SDS011;40724;53.196;5.980;2022-09-09T02:57:17;9.90;;;6.30;;
54823;SDS011;40724;53.196;5.980;2022-09-09T02:59:45;7.65;;;4.97;;
54823;SDS011;40724;53.196;5.980;2022-09-09T03:02:11;8.75;;;5.95;;
54823;SDS011;40724;53.196;5.980;2022-09-09T03:04:38;8.90;;;5.57;;
54823;SDS011;40724;53.196;5.980;2022-09-09T03:07:04;6.70;;;5.10;;
54823;SDS011;40724;53.196;5.980;2022-09-09T03:09:31;8.90;;;6.38;;
54823;SDS011;40724;53.196;5.980;2022-09-09T03:12:00;11.88;;;6.32;;
54823;SDS011;40724;53.196;5.980;2022-09-09T03:14:26;10.85;;;5.40;;
54823;SDS011;40724;53.196;5.980;2022-09-09T03:16:52;9.95;;;6.03;;
54823;SDS011;40724;53.196;5.980;2022-09-09T03:19:19;7.88;;;5.05;;
54823;SDS011;40724;53.196;5.980;2022-09-09T03:21:45;9.18;;;5.80;;
54823;SDS011;40724;53.196;5.980;2022-09-09T03:24:12;6.40;;;5.18;;
54823;SDS011;40724;53.196;5.980;2022-09-09T03:26:39;6.32;;;5.47;;
54823;SDS011;40724;53.196;5.980;2022-09-09T03:29:06;6.82;;;5.00;;
54823;SDS011;40724;53.196;5.980;2022-09-09T03:31:33;9.52;;;5.32;;
54823;SDS011;40724;53.196;5.980;2022-09-09T03:33:59;6.75;;;5.50;;
54823;SDS011;40724;53.196;5.980;2022-09-09T03:36:25;15.13;;;5.93;;
54823;SDS011;40724;53.196;5.980;2022-09-09T03:38:52;14.45;;;5.90;;
54823;SDS011;40724;53.196;5.980;2022-09-09T03:41:19;7.38;;;5.07;;
54823;SDS011;40724;53.196;5.980;2022-09-09T03:43:46;6.97;;;5.65;;
54823;SDS011;40724;53.196;5.980;2022-09-09T03:46:12;10.48;;;5.22;;
54823;SDS011;40724;53.196;5.980;2022-09-09T03:48:38;10.18;;;5.88;;
54823;SDS011;40724;53.196;5.980;2022-09-09T03:51:04;9.85;;;5.53;;
54823;SDS011;40724;53.196;5.980;2022-09-09T03:53:30;9.57;;;5.97;;
54823;SDS011;40724;53.196;5.980;2022-09-09T03:55:57;10.30;;;5.07;;
54823;SDS011;40724;53.196;5.980;2022-09-09T03:58:25;9.80;;;6.72;;
54823;SDS011;40724;53.196;5.980;2022-09-09T04:01:25;8.52;;;5.10;;
54823;SDS011;40724;53.196;5.980;2022-09-09T04:03:44;7.32;;;5.55;;
54823;SDS011;40724;53.196;5.980;2022-09-09T04:06:11;8.68;;;5.85;;
54823;SDS011;40724;53.196;5.980;2022-09-09T04:08:38;7.15;;;5.20;;
54823;SDS011;40724;53.196;5.980;2022-09-09T04:11:05;9.75;;;5.43;;
54823;SDS011;40724;53.196;5.980;2022-09-09T04:13:34;8.27;;;5.25;;
54823;SDS011;40724;53.196;5.980;2022-09-09T04:16:03;8.20;;;5.13;;
54823;SDS011;40724;53.196;5.980;2022-09-09T04:18:30;8.68;;;5.00;;
54823;SDS011;40724;53.196;5.980;2022-09-09T04:20:57;7.18;;;5.20;;
54823;SDS011;40724;53.196;5.980;2022-09-09T04:23:23;8.85;;;4.70;;
54823;SDS011;40724;53.196;5.980;2022-09-09T04:25:54;7.95;;;4.38;;
54823;SDS011;40724;53.196;5.980;2022-09-09T04:28:21;9.10;;;5.40;;
54823;SDS011;40724;53.196;5.980;2022-09-09T04:30:47;8.48;;;5.40;;
54823;SDS011;40724;53.196;5.980;2022-09-09T04:33:13;10.10;;;5.60;;
54823;SDS011;40724;53.196;5.980;2022-09-09T04:35:49;8.52;;;5.95;;
54823;SDS011;40724;53.196;5.980;2022-09-09T04:38:16;9.23;;;5.10;;
54823;SDS011;40724;53.196;5.980;2022-09-09T04:40:43;9.10;;;5.72;;
54823;SDS011;40724;53.196;5.980;2022-09-09T04:43:09;10.20;;;6.18;;
54823;SDS011;40724;53.196;5.980;2022-09-09T04:45:35;7.43;;;5.85;;
54823;SDS011;40724;53.196;5.980;2022-09-09T04:48:02;8.77;;;5.65;;
54823;SDS011;40724;53.196;5.980;2022-09-09T04:50:29;9.38;;;6.68;;
54823;SDS011;40724;53.196;5.980;2022-09-09T04:52:55;8.43;;;5.80;;
54823;SDS011;40724;53.196;5.980;2022-09-09T04:55:21;14.73;;;8.00;;
54823;SDS011;40724;53.196;5.980;2022-09-09T04:57:47;9.85;;;6.35;;
54823;SDS011;40724;53.196;5.980;2022-09-09T05:00:13;10.05;;;7.50;;
54823;SDS011;40724;53.196;5.980;2022-09-09T05:02:40;9.80;;;6.70;;
54823;SDS011;40724;53.196;5.980;2022-09-09T05:05:07;8.60;;;6.22;;
54823;SDS011;40724;53.196;5.980;2022-09-09T05:07:33;9.05;;;6.22;;
54823;SDS011;40724;53.196;5.980;2022-09-09T05:09:59;11.57;;;6.95;;
54823;SDS011;40724;53.196;5.980;2022-09-09T05:12:26;10.02;;;7.05;;
54823;SDS011;40724;53.196;5.980;2022-09-09T05:14:52;9.23;;;6.55;;
54823;SDS011;40724;53.196;5.980;2022-09-09T05:17:18;8.90;;;6.22;;
54823;SDS011;40724;53.196;5.980;2022-09-09T05:19:44;10.43;;;6.13;;
54823;SDS011;40724;53.196;5.980;2022-09-09T05:22:10;9.05;;;6.82;;
54823;SDS011;40724;53.196;5.980;2022-09-09T05:24:37;10.38;;;6.93;;
54823;SDS011;40724;53.196;5.980;2022-09-09T05:27:04;7.57;;;5.70;;
54823;SDS011;40724;53.196;5.980;2022-09-09T05:29:31;10.18;;;6.72;;
54823;SDS011;40724;53.196;5.980;2022-09-09T05:32:00;9.85;;;6.55;;
54823;SDS011;40724;53.196;5.980;2022-09-09T05:34:26;9.65;;;7.53;;
54823;SDS011;40724;53.196;5.980;2022-09-09T05:36:52;8.05;;;6.20;;
54823;SDS011;40724;53.196;5.980;2022-09-09T05:39:18;12.25;;;8.18;;
54823;SDS011;40724;53.196;5.980;2022-09-09T05:41:44;10.32;;;7.20;;
54823;SDS011;40724;53.196;5.980;2022-09-09T05:44:11;9.80;;;6.00;;
54823;SDS011;40724;53.196;5.980;2022-09-09T05:46:37;11.40;;;7.85;;
54823;SDS011;40724;53.196;5.980;2022-09-09T05:49:03;11.98;;;6.90;;
54823;SDS011;40724;53.196;5.980;2022-09-09T05:51:30;11.18;;;7.72;;
54823;SDS011;40724;53.196;5.980;2022-09-09T05:53:56;11.93;;;8.75;;
54823;SDS011;40724;53.196;5.980;2022-09-09T05:56:26;11.85;;;8.27;;
54823;SDS011;40724;53.196;5.980;2022-09-09T05:58:53;13.43;;;7.38;;
54823;SDS011;40724;53.196;5.980;2022-09-09T06:01:24;9.57;;;6.82;;
54823;SDS011;40724;53.196;5.980;2022-09-09T06:03:51;10.70;;;8.33;;
54823;SDS011;40724;53.196;5.980;2022-09-09T06:06:19;10.95;;;8.77;;
54823;SDS011;40724;53.196;5.980;2022-09-09T06:08:52;10.00;;;8.02;;
54823;SDS011;40724;53.196;5.980;2022-09-09T06:11:20;12.55;;;9.15;;
54823;SDS011;40724;53.196;5.980;2022-09-09T06:13:46;11.13;;;8.32;;
54823;SDS011;40724;53.196;5.980;2022-09-09T06:16:14;12.10;;;8.98;;
54823;SDS011;40724;53.196;5.980;2022-09-09T06:18:40;12.10;;;8.02;;
54823;SDS011;40724;53.196;5.980;2022-09-09T06:21:08;14.02;;;8.57;;
54823;SDS011;40724;53.196;5.980;2022-09-09T06:23:35;12.20;;;8.27;;
54823;SDS011;40724;53.196;5.980;2022-09-09T06:26:09;12.30;;;8.35;;
54823;SDS011;40724;53.196;5.980;2022-09-09T06:28:36;10.02;;;8.75;;
54823;SDS011;40724;53.196;5.980;2022-09-09T06:31:03;10.55;;;8.30;;
54823;SDS011;40724;53.196;5.980;2022-09-09T06:33:30;10.02;;;8.07;;
54823;SDS011;40724;53.196;5.980;2022-09-09T06:35:57;11.55;;;8.02;;
54823;SDS011;40724;53.196;5.980;2022-09-09T06:38:23;12.48;;;8.70;;
54823;SDS011;40724;53.196;5.980;2022-09-09T06:40:52;9.82;;;7.32;;
54823;SDS011;40724;53.196;5.980;2022-09-09T06:43:22;8.88;;;6.55;;
54823;SDS011;40724;53.196;5.980;2022-09-09T06:46:02;14.00;;;8.32;;
54823;SDS011;40724;53.196;5.980;2022-09-09T06:48:28;10.00;;;6.57;;
54823;SDS011;40724;53.196;5.980;2022-09-09T06:51:02;11.65;;;7.28;;
54823;SDS011;40724;53.196;5.980;2022-09-09T06:53:28;12.50;;;7.63;;
54823;SDS011;40724;53.196;5.980;2022-09-09T06:55:54;11.18;;;7.72;;
54823;SDS011;40724;53.196;5.980;2022-09-09T06:58:20;15.88;;;7.32;;
54823;SDS011;40724;53.196;5.980;2022-09-09T07:00:49;9.18;;;6.15;;
54823;SDS011;40724;53.196;5.980;2022-09-09T07:03:15;8.98;;;6.75;;
54823;SDS011;40724;53.196;5.980;2022-09-09T07:05:42;11.30;;;8.23;;
54823;SDS011;40724;53.196;5.980;2022-09-09T07:08:10;12.32;;;7.35;;
54823;SDS011;40724;53.196;5.980;2022-09-09T07:10:36;10.93;;;7.65;;
54823;SDS011;40724;53.196;5.980;2022-09-09T07:13:03;13.25;;;7.45;;
54823;SDS011;40724;53.196;5.980;2022-09-09T07:15:29;10.23;;;6.80;;
54823;SDS011;40724;53.196;5.980;2022-09-09T07:18:00;10.13;;;7.57;;
54823;SDS011;40724;53.196;5.980;2022-09-09T07:20:27;10.95;;;7.32;;
54823;SDS011;40724;53.196;5.980;2022-09-09T07:22:54;12.75;;;7.82;;
54823;SDS011;40724;53.196;5.980;2022-09-09T07:25:21;10.65;;;7.97;;
54823;SDS011;40724;53.196;5.980;2022-09-09T07:27:47;11.32;;;7.35;;
54823;SDS011;40724;53.196;5.980;2022-09-09T07:30:14;12.25;;;7.35;;
54823;SDS011;40724;53.196;5.980;2022-09-09T07:32:40;13.50;;;6.75;;
54823;SDS011;40724;53.196;5.980;2022-09-09T07:35:06;10.02;;;7.13;;
54823;SDS011;40724;53.196;5.980;2022-09-09T07:37:35;10.05;;;7.13;;
54823;SDS011;40724;53.196;5.980;2022-09-09T07:40:02;8.70;;;7.18;;
54823;SDS011;40724;53.196;5.980;2022-09-09T07:42:28;10.43;;;6.63;;
54823;SDS011;40724;53.196;5.980;2022-09-09T07:44:55;8.27;;;5.70;;
54823;SDS011;40724;53.196;5.980;2022-09-09T07:47:21;9.20;;;6.70;;
54823;SDS011;40724;53.196;5.980;2022-09-09T07:49:49;7.40;;;5.85;;
54823;SDS011;40724;53.196;5.980;2022-09-09T07:52:16;9.25;;;5.78;;
54823;SDS011;40724;53.196;5.980;2022-09-09T07:54:42;9.15;;;6.07;;
54823;SDS011;40724;53.196;5.980;2022-09-09T07:57:08;12.43;;;6.80;;
54823;SDS011;40724;53.196;5.980;2022-09-09T07:59:34;9.63;;;6.40;;
54823;SDS011;40724;53.196;5.980;2022-09-09T08:02:00;8.95;;;6.00;;
54823;SDS011;40724;53.196;5.980;2022-09-09T08:04:27;10.25;;;5.85;;
54823;SDS011;40724;53.196;5.980;2022-09-09T08:06:54;8.48;;;6.03;;
54823;SDS011;40724;53.196;5.980;2022-09-09T08:09:20;6.70;;;4.50;;
54823;SDS011;40724;53.196;5.980;2022-09-09T08:11:50;11.40;;;6.00;;
54823;SDS011;40724;53.196;5.980;2022-09-09T08:14:16;7.25;;;5.57;;
54823;SDS011;40724;53.196;5.980;2022-09-09T08:16:44;8.88;;;6.20;;
54823;SDS011;40724;53.196;5.980;2022-09-09T08:19:10;10.38;;;5.50;;
54823;SDS011;40724;53.196;5.980;2022-09-09T08:21:37;8.40;;;5.47;;
54823;SDS011;40724;53.196;5.980;2022-09-09T08:24:05;9.88;;;5.90;;
54823;SDS011;40724;53.196;5.980;2022-09-09T08:26:39;12.05;;;5.00;;
54823;SDS011;40724;53.196;5.980;2022-09-09T08:29:07;10.82;;;5.65;;
54823;SDS011;40724;53.196;5.980;2022-09-09T08:34:02;12.13;;;5.10;;
54823;SDS011;40724;53.196;5.980;2022-09-09T08:36:29;9.68;;;5.22;;
54823;SDS011;40724;53.196;5.980;2022-09-09T08:38:56;9.52;;;5.85;;
54823;SDS011;40724;53.196;5.980;2022-09-09T08:44:07;8.13;;;6.35;;
54823;SDS011;40724;53.196;5.980;2022-09-09T08:49:04;13.60;;;6.43;;
54823;SDS011;40724;53.196;5.980;2022-09-09T08:51:32;11.82;;;6.05;;
54823;SDS011;40724;53.196;5.980;2022-09-09T08:53:59;9.50;;;5.88;;
54823;SDS011;40724;53.196;5.980;2022-09-09T08:56:27;9.93;;;6.00;;
54823;SDS011;40724;53.196;5.980;2022-09-09T08:58:56;9.23;;;6.03;;
54823;SDS011;40724;53.196;5.980;2022-09-09T09:08:56;7.45;;;5.30;;
54823;SDS011;40724;53.196;5.980;2022-09-09T09:11:24;9.85;;;5.28;;
54823;SDS011;40724;53.196;5.980;2022-09-09T09:13:52;9.02;;;5.13;;
54823;SDS011;40724;53.196;5.980;2022-09-09T09:16:23;7.78;;;4.55;;
54823;SDS011;40724;53.196;5.980;2022-09-09T09:18:51;10.70;;;5.72;;
54823;SDS011;40724;53.196;5.980;2022-09-09T09:24:04;13.52;;;6.13;;
54823;SDS011;40724;53.196;5.980;2022-09-09T09:26:33;14.77;;;5.97;;
54823;SDS011;40724;53.196;5.980;2022-09-09T09:29:00;9.93;;;5.55;;
54823;SDS011;40724;53.196;5.980;2022-09-09T09:31:29;11.90;;;5.03;;
54823;SDS011;40724;53.196;5.980;2022-09-09T09:33:56;7.90;;;3.83;;
54823;SDS011;40724;53.196;5.980;2022-09-09T09:36:24;7.05;;;4.40;;
54823;SDS011;40724;53.196;5.980;2022-09-09T09:38:59;12.68;;;4.65;;
54823;SDS011;40724;53.196;5.980;2022-09-09T09:41:30;7.07;;;3.40;;
54823;SDS011;40724;53.196;5.980;2022-09-09T09:43:56;10.27;;;4.55;;
54823;SDS011;40724;53.196;5.980;2022-09-09T09:46:23;6.38;;;4.35;;
54823;SDS011;40724;53.196;5.980;2022-09-09T09:49:00;6.43;;;3.40;;
54823;SDS011;40724;53.196;5.980;2022-09-09T09:51:27;6.80;;;4.20;;
54823;SDS011;40724;53.196;5.980;2022-09-09T09:53:54;10.70;;;3.55;;
54823;SDS011;40724;53.196;5.980;2022-09-09T09:56:30;8.85;;;4.32;;
54823;SDS011;40724;53.196;5.980;2022-09-09T09:58:57;8.25;;;3.35;;
54823;SDS011;40724;53.196;5.980;2022-09-09T10:03:51;7.43;;;3.53;;
54823;SDS011;40724;53.196;5.980;2022-09-09T10:06:28;6.70;;;3.45;;
54823;SDS011;40724;53.196;5.980;2022-09-09T10:08:54;7.32;;;3.60;;
54823;SDS011;40724;53.196;5.980;2022-09-09T10:16:41;7.22;;;3.53;;
54823;SDS011;40724;53.196;5.980;2022-09-09T10:19:25;7.53;;;3.67;;
54823;SDS011;40724;53.196;5.980;2022-09-09T10:24:44;11.15;;;3.63;;
54823;SDS011;40724;53.196;5.980;2022-09-09T10:30:28;12.07;;;3.55;;
54823;SDS011;40724;53.196;5.980;2022-09-09T10:35:10;7.10;;;2.63;;
54823;SDS011;40724;53.196;5.980;2022-09-09T10:37:46;7.10;;;3.00;;
54823;SDS011;40724;53.196;5.980;2022-09-09T10:43:00;7.30;;;3.20;;
54823;SDS011;40724;53.196;5.980;2022-09-09T10:53:53;10.50;;;2.90;;
54823;SDS011;40724;53.196;5.980;2022-09-09T10:56:20;6.35;;;2.60;;
54823;SDS011;40724;53.196;5.980;2022-09-09T10:58:56;10.40;;;2.53;;
54823;SDS011;40724;53.196;5.980;2022-09-09T11:01:26;3.45;;;2.13;;
54823;SDS011;40724;53.196;5.980;2022-09-09T11:03:59;7.18;;;2.88;;
54823;SDS011;40724;53.196;5.980;2022-09-09T11:06:29;9.75;;;3.83;;
54823;SDS011;40724;53.196;5.980;2022-09-09T11:08:57;5.38;;;2.13;;
54823;SDS011;40724;53.196;5.980;2022-09-09T11:11:43;5.07;;;2.70;;
54823;SDS011;40724;53.196;5.980;2022-09-09T11:14:15;7.65;;;2.47;;
54823;SDS011;40724;53.196;5.980;2022-09-09T11:16:47;6.38;;;3.25;;
54823;SDS011;40724;53.196;5.980;2022-09-09T11:19:24;7.05;;;2.20;;
54823;SDS011;40724;53.196;5.980;2022-09-09T11:21:54;10.32;;;3.30;;
54823;SDS011;40724;53.196;5.980;2022-09-09T11:26:51;10.40;;;2.67;;
54823;SDS011;40724;53.196;5.980;2022-09-09T11:31:46;7.15;;;2.33;;
54823;SDS011;40724;53.196;5.980;2022-09-09T11:44:51;5.78;;;2.00;;
54823;SDS011;40724;53.196;5.980;2022-09-09T11:49:51;5.93;;;2.22;;
54823;SDS011;40724;53.196;5.980;2022-09-09T11:52:35;4.95;;;2.45;;
54823;SDS011;40724;53.196;5.980;2022-09-09T11:55:09;5.85;;;2.40;;
54823;SDS011;40724;53.196;5.980;2022-09-09T11:57:36;5.28;;;2.08;;
54823;SDS011;40724;53.196;5.980;2022-09-09T12:00:03;5.28;;;3.47;;
54823;SDS011;40724;53.196;5.980;2022-09-09T12:02:30;4.13;;;2.00;;
54823;SDS011;40724;53.196;5.980;2022-09-09T12:05:01;6.97;;;3.35;;
54823;SDS011;40724;53.196;5.980;2022-09-09T12:07:37;8.02;;;2.05;;
54823;SDS011;40724;53.196;5.980;2022-09-09T12:12:35;10.10;;;2.65;;
54823;SDS011;40724;53.196;5.980;2022-09-09T12:17:41;6.53;;;2.65;;
54823;SDS011;40724;53.196;5.980;2022-09-09T12:22:40;6.15;;;2.13;;
54823;SDS011;40724;53.196;5.980;2022-09-09T12:27:45;8.68;;;2.75;;
54823;SDS011;40724;53.196;5.980;2022-09-09T12:30:15;6.88;;;2.08;;
54823;SDS011;40724;53.196;5.980;2022-09-09T12:32:41;6.25;;;3.30;;
54823;SDS011;40724;53.196;5.980;2022-09-09T12:35:22;10.40;;;3.20;;
54823;SDS011;40724;53.196;5.980;2022-09-09T12:37:52;7.50;;;2.60;;
54823;SDS011;40724;53.196;5.980;2022-09-09T12:40:32;5.80;;;2.92;;
54823;SDS011;40724;53.196;5.980;2022-09-09T12:43:00;7.82;;;2.45;;
54823;SDS011;40724;53.196;5.980;2022-09-09T12:45:30;5.43;;;2.60;;
54823;SDS011;40724;53.196;5.980;2022-09-09T12:48:00;7.90;;;2.50;;
54823;SDS011;40724;53.196;5.980;2022-09-09T12:50:27;7.18;;;2.78;;
54823;SDS011;40724;53.196;5.980;2022-09-09T12:52:58;5.80;;;2.55;;
54823;SDS011;40724;53.196;5.980;2022-09-09T12:55:28;3.92;;;2.55;;
54823;SDS011;40724;53.196;5.980;2022-09-09T12:57:55;4.63;;;2.47;;
54823;SDS011;40724;53.196;5.980;2022-09-09T13:00:23;4.97;;;2.15;;
54823;SDS011;40724;53.196;5.980;2022-09-09T13:02:50;5.75;;;2.88;;
54823;SDS011;40724;53.196;5.980;2022-09-09T13:05:19;6.72;;;2.72;;
54823;SDS011;40724;53.196;5.980;2022-09-09T13:07:45;8.73;;;3.58;;
54823;SDS011;40724;53.196;5.980;2022-09-09T13:10:13;8.82;;;2.88;;
54823;SDS011;40724;53.196;5.980;2022-09-09T13:12:39;7.35;;;2.47;;
54823;SDS011;40724;53.196;5.980;2022-09-09T13:15:10;3.22;;;1.88;;
54823;SDS011;40724;53.196;5.980;2022-09-09T13:17:39;5.95;;;2.25;;
54823;SDS011;40724;53.196;5.980;2022-09-09T13:20:05;8.20;;;2.65;;
54823;SDS011;40724;53.196;5.980;2022-09-09T13:22:36;11.25;;;2.60;;
54823;SDS011;40724;53.196;5.980;2022-09-09T13:30:25;4.55;;;1.60;;
54823;SDS011;40724;53.196;5.980;2022-09-09T13:33:02;8.30;;;2.78;;
54823;SDS011;40724;53.196;5.980;2022-09-09T13:35:28;3.90;;;1.70;;
54823;SDS011;40724;53.196;5.980;2022-09-09T13:37:54;4.00;;;2.22;;
54823;SDS011;40724;53.196;5.980;2022-09-09T13:40:21;2.50;;;1.45;;
54823;SDS011;40724;53.196;5.980;2022-09-09T13:42:51;7.30;;;1.98;;
54823;SDS011;40724;53.196;5.980;2022-09-09T13:45:19;5.82;;;2.33;;
54823;SDS011;40724;53.196;5.980;2022-09-09T13:47:45;5.28;;;2.15;;
54823;SDS011;40724;53.196;5.980;2022-09-09T13:52:45;2.05;;;1.17;;
54823;SDS011;40724;53.196;5.980;2022-09-09T13:55:12;2.00;;;1.20;;
54823;SDS011;40724;53.196;5.980;2022-09-09T13:57:38;2.45;;;1.50;;
54823;SDS011;40724;53.196;5.980;2022-09-09T14:00:05;3.65;;;1.25;;
54823;SDS011;40724;53.196;5.980;2022-09-09T14:02:33;3.85;;;1.83;;
54823;SDS011;40724;53.196;5.980;2022-09-09T14:05:00;3.92;;;1.75;;
54823;SDS011;40724;53.196;5.980;2022-09-09T14:07:26;7.95;;;2.60;;
54823;SDS011;40724;53.196;5.980;2022-09-09T14:09:53;4.82;;;2.00;;
54823;SDS011;40724;53.196;5.980;2022-09-09T14:12:19;4.47;;;2.40;;
54823;SDS011;40724;53.196;5.980;2022-09-09T14:14:45;3.83;;;1.80;;
54823;SDS011;40724;53.196;5.980;2022-09-09T14:17:11;3.15;;;1.83;;
54823;SDS011;40724;53.196;5.980;2022-09-09T14:19:38;4.07;;;1.63;;
54823;SDS011;40724;53.196;5.980;2022-09-09T14:22:04;3.40;;;1.42;;
54823;SDS011;40724;53.196;5.980;2022-09-09T14:24:30;3.97;;;1.55;;
54823;SDS011;40724;53.196;5.980;2022-09-09T14:26:57;2.35;;;1.20;;
54823;SDS011;40724;53.196;5.980;2022-09-09T14:29:23;2.13;;;1.15;;
54823;SDS011;40724;53.196;5.980;2022-09-09T14:31:51;2.50;;;1.33;;
54823;SDS011;40724;53.196;5.980;2022-09-09T14:34:18;3.28;;;1.75;;
54823;SDS011;40724;53.196;5.980;2022-09-09T14:36:44;5.93;;;1.65;;
54823;SDS011;40724;53.196;5.980;2022-09-09T14:39:10;2.05;;;1.25;;
54823;SDS011;40724;53.196;5.980;2022-09-09T14:41:37;2.67;;;1.63;;
54823;SDS011;40724;53.196;5.980;2022-09-09T14:44:03;9.00;;;1.65;;
54823;SDS011;40724;53.196;5.980;2022-09-09T14:46:29;2.83;;;1.20;;
54823;SDS011;40724;53.196;5.980;2022-09-09T14:48:56;4.13;;;1.85;;
54823;SDS011;40724;53.196;5.980;2022-09-09T14:51:23;4.85;;;1.33;;
54823;SDS011;40724;53.196;5.980;2022-09-09T14:53:53;2.45;;;1.33;;
54823;SDS011;40724;53.196;5.980;2022-09-09T14:56:20;5.47;;;1.30;;
54823;SDS011;40724;53.196;5.980;2022-09-09T14:58:48;3.90;;;1.67;;
54823;SDS011;40724;53.196;5.980;2022-09-09T15:01:16;2.33;;;1.40;;
54823;SDS011;40724;53.196;5.980;2022-09-09T15:03:43;6.20;;;1.90;;
54823;SDS011;40724;53.196;5.980;2022-09-09T15:06:10;4.82;;;2.08;;
54823;SDS011;40724;53.196;5.980;2022-09-09T15:08:37;6.78;;;1.83;;
54823;SDS011;40724;53.196;5.980;2022-09-09T15:11:05;4.75;;;1.70;;
54823;SDS011;40724;53.196;5.980;2022-09-09T15:13:35;3.45;;;1.70;;
54823;SDS011;40724;53.196;5.980;2022-09-09T15:18:31;3.10;;;1.42;;
54823;SDS011;40724;53.196;5.980;2022-09-09T15:20:58;3.13;;;1.77;;
54823;SDS011;40724;53.196;5.980;2022-09-09T15:23:25;3.53;;;1.70;;
54823;SDS011;40724;53.196;5.980;2022-09-09T15:25:54;2.70;;;2.08;;
54823;SDS011;40724;53.196;5.980;2022-09-09T15:28:21;4.18;;;1.73;;
54823;SDS011;40724;53.196;5.980;2022-09-09T15:30:48;2.92;;;1.75;;
54823;SDS011;40724;53.196;5.980;2022-09-09T15:33:14;2.88;;;1.55;;
54823;SDS011;40724;53.196;5.980;2022-09-09T15:35:41;3.38;;;2.10;;
54823;SDS011;40724;53.196;5.980;2022-09-09T15:38:07;2.72;;;1.67;;
54823;SDS011;40724;53.196;5.980;2022-09-09T15:40:33;3.65;;;2.13;;
54823;SDS011;40724;53.196;5.980;2022-09-09T15:42:59;4.57;;;2.22;;
54823;SDS011;40724;53.196;5.980;2022-09-09T15:45:26;3.92;;;1.70;;
54823;SDS011;40724;53.196;5.980;2022-09-09T15:47:52;9.23;;;2.33;;
54823;SDS011;40724;53.196;5.980;2022-09-09T15:50:18;4.28;;;2.25;;
54823;SDS011;40724;53.196;5.980;2022-09-09T15:52:44;3.88;;;2.10;;
54823;SDS011;40724;53.196;5.980;2022-09-09T15:55:10;5.18;;;2.33;;
54823;SDS011;40724;53.196;5.980;2022-09-09T15:57:36;5.60;;;2.60;;
54823;SDS011;40724;53.196;5.980;2022-09-09T16:00:03;5.40;;;2.08;;
54823;SDS011;40724;53.196;5.980;2022-09-09T16:02:29;4.15;;;2.47;;
54823;SDS011;40724;53.196;5.980;2022-09-09T16:04:56;5.03;;;2.40;;
54823;SDS011;40724;53.196;5.980;2022-09-09T16:07:22;5.60;;;2.70;;
54823;SDS011;40724;53.196;5.980;2022-09-09T16:09:48;7.78;;;3.53;;
54823;SDS011;40724;53.196;5.980;2022-09-09T16:12:17;6.15;;;3.40;;
54823;SDS011;40724;53.196;5.980;2022-09-09T16:14:44;4.68;;;3.10;;
54823;SDS011;40724;53.196;5.980;2022-09-09T16:17:10;5.78;;;2.78;;
54823;SDS011;40724;53.196;5.980;2022-09-09T16:19:36;7.00;;;3.38;;
54823;SDS011;40724;53.196;5.980;2022-09-09T16:22:03;6.93;;;3.13;;
54823;SDS011;40724;53.196;5.980;2022-09-09T16:24:29;9.32;;;3.42;;
54823;SDS011;40724;53.196;5.980;2022-09-09T16:26:55;5.45;;;2.97;;
54823;SDS011;40724;53.196;5.980;2022-09-09T16:29:22;7.05;;;3.70;;
54823;SDS011;40724;53.196;5.980;2022-09-09T16:31:49;7.28;;;3.78;;
54823;SDS011;40724;53.196;5.980;2022-09-09T16:34:16;8.77;;;3.83;;
54823;SDS011;40724;53.196;5.980;2022-09-09T16:36:43;5.65;;;3.58;;
54823;SDS011;40724;53.196;5.980;2022-09-09T16:39:11;7.05;;;2.72;;
54823;SDS011;40724;53.196;5.980;2022-09-09T16:41:38;5.78;;;2.95;;
54823;SDS011;40724;53.196;5.980;2022-09-09T16:44:06;7.03;;;2.95;;
54823;SDS011;40724;53.196;5.980;2022-09-09T16:46:36;4.13;;;2.80;;
54823;SDS011;40724;53.196;5.980;2022-09-09T16:49:04;8.65;;;3.30;;
54823;SDS011;40724;53.196;5.980;2022-09-09T16:51:35;4.35;;;2.70;;
54823;SDS011;40724;53.196;5.980;2022-09-09T16:54:03;4.68;;;2.08;;